createdAt,value
2018-06-27T00:01:53.350Z,9.47
2018-06-27T00:04:22.111Z,8.30
2018-06-27T00:06:50.450Z,8.20
2018-06-27T00:09:19.109Z,6.67
2018-06-27T00:11:47.965Z,8.33
2018-06-27T00:14:16.731Z,6.50
2018-06-27T00:16:45.556Z,6.37
2018-06-27T00:19:14.243Z,7.00
2018-06-27T00:21:44.203Z,6.13
2018-06-27T00:24:13.570Z,7.40
2018-06-27T00:26:44.819Z,7.50
2018-06-27T00:29:13.817Z,6.40
2018-06-27T00:31:42.599Z,8.13
2018-06-27T00:34:11.387Z,5.50
2018-06-27T00:36:41.557Z,7.93
2018-06-27T00:39:10.725Z,6.97
2018-06-27T00:41:40.303Z,6.30
2018-06-27T00:44:11.805Z,6.40
2018-06-27T00:46:40.903Z,5.77
2018-06-27T00:49:10.392Z,6.07
2018-06-27T00:51:39.173Z,7.17
2018-06-27T00:54:09.763Z,6.53
2018-06-27T00:56:40.345Z,7.50
2018-06-27T00:59:09.979Z,7.37
2018-06-27T01:01:39.681Z,7.93
2018-06-27T01:04:09.819Z,6.30
2018-06-27T01:06:38.605Z,7.23
2018-06-27T01:09:09.373Z,11.10
2018-06-27T01:11:38.781Z,7.13
2018-06-27T01:14:07.790Z,5.50
2018-06-27T01:16:36.965Z,6.20
2018-06-27T01:19:06.670Z,5.80
2018-06-27T01:21:36.124Z,7.13
2018-06-27T01:24:06.457Z,4.83
2018-06-27T01:26:36.052Z,9.20
2018-06-27T01:29:04.977Z,7.13
2018-06-27T01:31:33.773Z,5.23
2018-06-27T01:34:03.222Z,5.10
2018-06-27T01:36:32.910Z,6.80
2018-06-27T01:39:01.868Z,7.87
2018-06-27T01:41:30.310Z,5.20
2018-06-27T01:43:59.063Z,5.37
2018-06-27T01:46:27.909Z,5.07
2018-06-27T01:48:56.842Z,4.67
2018-06-27T01:51:26.257Z,5.43
2018-06-27T01:53:55.730Z,5.03
2018-06-27T01:56:24.974Z,6.43
2018-06-27T01:58:53.809Z,5.90
2018-06-27T02:01:22.240Z,5.47
2018-06-27T02:03:51.289Z,4.50
2018-06-27T02:06:20.706Z,5.30
2018-06-27T02:08:49.416Z,5.90
2018-06-27T02:11:19.006Z,7.13
2018-06-27T02:13:47.696Z,4.73
2018-06-27T02:16:17.089Z,5.10
2018-06-27T02:18:45.800Z,4.63
2018-06-27T02:21:14.441Z,4.47
2018-06-27T02:23:43.757Z,5.23
2018-06-27T02:26:12.948Z,4.37
2018-06-27T02:28:41.567Z,4.23
2018-06-27T02:31:11.042Z,4.87
2018-06-27T02:33:39.743Z,4.20
2018-06-27T02:36:09.953Z,4.40
2018-06-27T02:38:38.224Z,4.10
2018-06-27T02:41:08.103Z,4.10
2018-06-27T02:43:37.371Z,5.83
2018-06-27T02:46:07.942Z,3.77
2018-06-27T02:48:36.683Z,4.17
2018-06-27T02:51:06.018Z,5.80
2018-06-27T02:53:37.546Z,5.73
2018-06-27T02:56:08.025Z,8.97
2018-06-27T02:58:36.733Z,5.20
2018-06-27T03:01:06.058Z,4.70
2018-06-27T03:03:35.553Z,5.50
2018-06-27T03:06:05.741Z,5.40
2018-06-27T03:08:34.418Z,4.30
2018-06-27T03:11:03.154Z,6.63
2018-06-27T03:13:32.457Z,6.23
2018-06-27T03:16:02.342Z,7.60
2018-06-27T03:18:31.253Z,5.90
2018-06-27T03:21:00.616Z,4.80
2018-06-27T03:23:30.549Z,4.60
2018-06-27T03:25:59.438Z,4.40
2018-06-27T03:28:29.481Z,5.23
2018-06-27T03:30:57.789Z,5.10
2018-06-27T03:33:26.810Z,6.43
2018-06-27T03:35:55.610Z,5.77
2018-06-27T03:38:25.313Z,6.00
2018-06-27T03:40:54.060Z,5.53
2018-06-27T03:43:23.569Z,9.17
2018-06-27T03:45:52.292Z,4.93
2018-06-27T03:48:21.983Z,5.93
2018-06-27T03:50:52.271Z,9.70
2018-06-27T03:53:21.318Z,5.03
2018-06-27T03:55:51.368Z,4.70
2018-06-27T03:58:21.017Z,4.40
2018-06-27T04:00:50.048Z,4.53
2018-06-27T04:03:19.993Z,6.83
2018-06-27T04:05:48.821Z,5.90
2018-06-27T04:08:17.568Z,4.70
2018-06-27T04:10:45.922Z,7.00
2018-06-27T04:13:16.168Z,5.30
2018-06-27T04:15:45.087Z,5.50
2018-06-27T04:18:14.445Z,5.40
2018-06-27T04:20:43.177Z,4.60
2018-06-27T04:23:12.007Z,6.33
2018-06-27T04:25:41.485Z,4.70
2018-06-27T04:28:10.251Z,5.03
2018-06-27T04:30:40.224Z,9.00
2018-06-27T04:33:09.125Z,5.17
2018-06-27T04:35:38.544Z,6.40
2018-06-27T04:38:07.284Z,6.93
2018-06-27T04:40:36.098Z,5.57
2018-06-27T04:43:04.879Z,6.50
2018-06-27T04:45:34.205Z,5.33
2018-06-27T04:48:03.854Z,5.37
2018-06-27T04:50:33.388Z,4.47
2018-06-27T04:53:02.666Z,7.43
2018-06-27T04:55:31.529Z,8.03
2018-06-27T04:58:01.012Z,6.10
2018-06-27T05:00:30.021Z,5.90
2018-06-27T05:02:59.438Z,9.03
2018-06-27T05:05:28.298Z,5.40
2018-06-27T05:07:57.010Z,5.13
2018-06-27T05:10:25.661Z,5.37
2018-06-27T05:12:54.336Z,5.80
2018-06-27T05:15:23.148Z,5.30
2018-06-27T05:17:52.656Z,8.07
2018-06-27T05:20:21.564Z,8.50
2018-06-27T05:22:50.261Z,6.77
2018-06-27T05:25:19.077Z,9.10
2018-06-27T05:27:47.790Z,8.40
2018-06-27T05:30:17.325Z,7.67
2018-06-27T05:32:45.968Z,8.20
2018-06-27T05:35:14.804Z,8.33
2018-06-27T05:37:44.230Z,7.50
2018-06-27T05:40:13.027Z,7.90
2018-06-27T05:42:42.409Z,7.53
2018-06-27T05:45:11.569Z,7.90
2018-06-27T05:47:40.657Z,7.30
2018-06-27T05:50:10.113Z,7.37
2018-06-27T05:52:38.792Z,6.73
2018-06-27T05:55:09.631Z,8.50
2018-06-27T05:57:40.577Z,8.33
2018-06-27T06:00:10.424Z,11.83
2018-06-27T06:02:40.261Z,11.50
2018-06-27T06:05:10.499Z,7.17
2018-06-27T06:07:40.059Z,8.50
2018-06-27T06:10:09.015Z,18.90
2018-06-27T06:12:37.379Z,8.70
2018-06-27T06:15:07.060Z,10.30
2018-06-27T06:17:36.349Z,10.93
2018-06-27T06:20:06.356Z,9.43
2018-06-27T06:22:35.135Z,11.20
2018-06-27T06:25:04.164Z,13.73
2018-06-27T06:27:33.577Z,12.73
2018-06-27T06:30:03.537Z,11.40
2018-06-27T06:32:33.904Z,10.67
2018-06-27T06:35:02.669Z,12.50
2018-06-27T06:37:31.353Z,10.47
2018-06-27T06:40:00.652Z,12.97
2018-06-27T06:42:29.946Z,13.00
2018-06-27T06:44:59.264Z,11.80
2018-06-27T06:47:27.971Z,12.63
2018-06-27T06:49:57.452Z,12.30
2018-06-27T06:52:26.979Z,13.30
2018-06-27T06:54:55.649Z,13.60
2018-06-27T06:57:24.924Z,12.13
2018-06-27T06:59:53.785Z,12.13
2018-06-27T07:02:22.459Z,11.37
2018-06-27T07:04:51.442Z,10.70
2018-06-27T07:07:20.410Z,12.80
2018-06-27T07:09:49.124Z,13.13
2018-06-27T07:12:17.935Z,11.00
2018-06-27T07:14:46.681Z,18.57
2018-06-27T07:17:15.560Z,11.47
2018-06-27T07:19:44.261Z,16.40
2018-06-27T07:22:13.464Z,13.00
2018-06-27T07:24:42.883Z,14.73
2018-06-27T07:27:13.517Z,12.67
2018-06-27T07:29:42.486Z,13.20
2018-06-27T07:32:11.181Z,12.80
2018-06-27T07:34:39.985Z,13.50
2018-06-27T07:37:09.031Z,15.37
2018-06-27T07:39:38.070Z,14.60
2018-06-27T07:42:06.937Z,14.07
2018-06-27T07:44:36.149Z,12.60
2018-06-27T07:47:05.171Z,14.40
2018-06-27T07:49:34.708Z,14.83
2018-06-27T07:52:04.521Z,13.37
2018-06-27T07:54:40.565Z,12.43
2018-06-27T07:57:11.292Z,15.43
2018-06-27T07:59:40.580Z,10.43
2018-06-27T08:02:11.820Z,10.37
2018-06-27T08:04:43.318Z,13.37
2018-06-27T08:07:12.062Z,15.57
2018-06-27T08:09:42.368Z,13.07
2018-06-27T08:12:11.341Z,11.17
2018-06-27T08:14:40.856Z,12.00
2018-06-27T08:17:10.447Z,12.20
2018-06-27T08:19:39.156Z,15.90
2018-06-27T08:22:10.065Z,12.57
2018-06-27T08:24:39.473Z,15.30
2018-06-27T08:27:08.513Z,12.63
2018-06-27T08:29:37.926Z,12.13
2018-06-27T08:32:06.664Z,11.60
2018-06-27T08:34:36.414Z,10.63
2018-06-27T08:37:06.440Z,12.80
2018-06-27T08:39:35.453Z,10.57
2018-06-27T08:42:04.833Z,9.60
2018-06-27T08:44:34.741Z,8.73
2018-06-27T08:47:03.560Z,8.77
2018-06-27T08:49:32.234Z,7.90
2018-06-27T08:52:01.895Z,9.50
2018-06-27T08:54:31.259Z,7.87
2018-06-27T08:56:59.849Z,8.40
2018-06-27T08:59:28.757Z,8.03
2018-06-27T09:01:57.560Z,9.97
2018-06-27T09:04:26.849Z,10.30
2018-06-27T09:06:57.729Z,7.90
2018-06-27T09:09:27.681Z,8.00
2018-06-27T09:11:56.492Z,12.80
2018-06-27T09:14:25.279Z,10.87
2018-06-27T09:16:53.622Z,12.33
2018-06-27T09:19:23.806Z,13.23
2018-06-27T09:21:52.603Z,8.90
2018-06-27T09:24:22.240Z,8.63
2018-06-27T09:26:51.049Z,10.87
2018-06-27T09:29:20.828Z,10.53
2018-06-27T09:31:49.775Z,8.70
2018-06-27T09:34:19.192Z,9.03
2018-06-27T09:36:49.264Z,9.03
2018-06-27T09:39:19.333Z,7.70
2018-06-27T09:41:48.225Z,9.60
2018-06-27T09:44:17.749Z,7.83
2018-06-27T09:46:48.322Z,10.47
2018-06-27T09:49:17.303Z,6.93
2018-06-27T09:51:46.840Z,10.50
2018-06-27T09:54:15.594Z,8.47
2018-06-27T09:56:44.435Z,8.27
2018-06-27T09:59:13.336Z,7.70
2018-06-27T10:01:42.989Z,7.37
2018-06-27T10:04:12.585Z,7.27
2018-06-27T10:06:41.763Z,7.37
2018-06-27T10:09:11.044Z,7.27
2018-06-27T10:11:40.086Z,18.83
2018-06-27T10:14:09.996Z,12.77
2018-06-27T10:16:39.167Z,8.60
2018-06-27T10:19:08.368Z,6.63
2018-06-27T10:21:38.806Z,11.07
2018-06-27T10:24:08.912Z,7.60
2018-06-27T10:26:37.749Z,8.70
2018-06-27T10:29:07.409Z,9.17
2018-06-27T10:31:36.408Z,9.27
2018-06-27T10:34:05.528Z,7.40
2018-06-27T10:36:35.180Z,8.90
2018-06-27T10:39:07.589Z,7.23
2018-06-27T10:41:36.342Z,7.37
2018-06-27T10:44:05.281Z,7.20
2018-06-27T10:46:34.558Z,7.33
2018-06-27T10:49:04.191Z,7.20
2018-06-27T10:51:33.836Z,14.93
2018-06-27T10:54:03.128Z,7.43
2018-06-27T10:56:32.451Z,9.07
2018-06-27T10:59:01.168Z,9.73
2018-06-27T11:01:30.373Z,9.20
2018-06-27T11:03:59.138Z,12.90
2018-06-27T11:06:28.010Z,8.17
2018-06-27T11:08:56.880Z,7.40
2018-06-27T11:11:25.978Z,7.33
2018-06-27T11:13:55.763Z,7.43
2018-06-27T11:16:26.362Z,9.83
2018-06-27T11:18:55.057Z,10.43
2018-06-27T11:21:25.198Z,10.83
2018-06-27T11:23:54.750Z,7.67
2018-06-27T11:26:32.835Z,10.80
2018-06-27T11:29:01.745Z,9.60
2018-06-27T11:31:30.505Z,6.53
2018-06-27T11:33:59.308Z,12.13
2018-06-27T11:36:28.161Z,8.57
2018-06-27T11:38:57.106Z,6.87
2018-06-27T11:41:25.911Z,10.07
2018-06-27T11:43:54.387Z,13.97
2018-06-27T11:46:23.187Z,6.40
2018-06-27T11:48:51.637Z,8.57
2018-06-27T11:51:20.403Z,7.00
2018-06-27T11:53:50.112Z,10.50
2018-06-27T11:56:19.805Z,7.20
2018-06-27T11:58:49.395Z,7.57
2018-06-27T12:01:18.234Z,7.20
2018-06-27T12:03:46.995Z,8.53
2018-06-27T12:06:15.810Z,7.70
2018-06-27T12:08:46.055Z,7.87
2018-06-27T12:11:14.787Z,7.87
2018-06-27T12:13:44.034Z,8.87
2018-06-27T12:16:12.889Z,8.47
2018-06-27T12:18:41.740Z,7.07
2018-06-27T12:21:10.481Z,7.17
2018-06-27T12:23:39.242Z,8.33
2018-06-27T12:26:08.401Z,9.30
2018-06-27T12:28:37.086Z,7.70
2018-06-27T12:31:05.946Z,8.27
2018-06-27T12:33:35.355Z,14.57
2018-06-27T12:36:04.315Z,9.07
2018-06-27T12:38:33.141Z,8.07
2018-06-27T12:41:01.939Z,7.10
2018-06-27T12:43:30.683Z,7.47
2018-06-27T12:45:59.635Z,8.43
2018-06-27T12:48:28.782Z,10.63
2018-06-27T12:50:57.543Z,6.77
2018-06-27T12:53:26.767Z,6.67
2018-06-27T12:55:55.507Z,7.47
2018-06-27T12:58:24.677Z,8.07
2018-06-27T13:00:53.575Z,7.20
2018-06-27T13:03:22.499Z,7.17
2018-06-27T13:05:51.249Z,8.27
2018-06-27T13:08:20.131Z,7.43
2018-06-27T13:10:49.026Z,7.80
2018-06-27T13:13:18.190Z,8.53
2018-06-27T13:15:47.140Z,7.60
2018-06-27T13:18:21.042Z,6.90
2018-06-27T13:20:49.841Z,7.03
2018-06-27T13:23:18.537Z,7.50
2018-06-27T13:25:47.575Z,7.50
2018-06-27T13:28:16.395Z,6.20
2018-06-27T13:30:45.205Z,6.83
2018-06-27T13:33:13.915Z,6.80
2018-06-27T13:35:42.720Z,7.67
2018-06-27T13:38:11.955Z,7.53
2018-06-27T13:40:41.832Z,7.87
2018-06-27T13:43:11.750Z,8.10
2018-06-27T13:45:41.081Z,7.77
2018-06-27T13:48:10.147Z,6.87
2018-06-27T13:50:39.552Z,7.37
2018-06-27T13:53:09.081Z,7.37
2018-06-27T13:55:38.534Z,9.50
2018-06-27T13:58:08.698Z,7.53
2018-06-27T14:00:38.049Z,7.70
2018-06-27T14:03:07.315Z,9.43
2018-06-27T14:05:37.026Z,7.10
2018-06-27T14:08:06.130Z,8.57
2018-06-27T14:10:34.961Z,7.70
2018-06-27T14:13:03.957Z,7.00
2018-06-27T14:15:32.738Z,7.93
2018-06-27T14:18:02.657Z,9.60
2018-06-27T14:20:31.451Z,10.63
2018-06-27T14:23:01.102Z,8.33
2018-06-27T14:25:30.179Z,7.63
2018-06-27T14:27:59.135Z,8.13
2018-06-27T14:30:27.925Z,8.60
2018-06-27T14:32:56.902Z,7.83
2018-06-27T14:35:26.196Z,7.23
2018-06-27T14:37:55.378Z,7.53
2018-06-27T14:40:25.172Z,7.50
2018-06-27T14:42:54.398Z,9.93
2018-06-27T14:45:23.928Z,7.27
2018-06-27T14:47:53.069Z,8.30
2018-06-27T14:50:22.386Z,8.73
2018-06-27T14:52:52.611Z,12.30
2018-06-27T14:55:21.664Z,10.90
2018-06-27T14:57:50.452Z,10.03
2018-06-27T15:00:19.406Z,10.67
2018-06-27T15:02:48.637Z,14.50
2018-06-27T15:05:18.035Z,12.33
2018-06-27T15:07:47.106Z,9.30
2018-06-27T15:10:15.933Z,11.50
2018-06-27T15:12:45.765Z,9.93
2018-06-27T15:15:14.574Z,9.70
2018-06-27T15:17:43.405Z,8.07
2018-06-27T15:20:12.366Z,8.73
2018-06-27T15:22:41.244Z,8.30
2018-06-27T15:25:10.836Z,6.73
2018-06-27T15:27:39.937Z,8.03
2018-06-27T15:30:09.258Z,7.70
2018-06-27T15:32:38.121Z,6.70
2018-06-27T15:35:08.607Z,10.43
2018-06-27T15:37:37.499Z,4.87
2018-06-27T15:40:06.612Z,6.13
2018-06-27T15:42:35.957Z,4.70
2018-06-27T15:45:06.218Z,4.77
2018-06-27T15:47:35.378Z,4.80
2018-06-27T15:50:05.466Z,5.27
2018-06-27T15:52:34.410Z,4.57
2018-06-27T15:55:03.715Z,9.00
2018-06-27T15:57:32.635Z,13.20
2018-06-27T16:00:01.908Z,6.30
2018-06-27T16:02:30.812Z,6.87
2018-06-27T16:04:59.576Z,7.13
2018-06-27T16:07:30.337Z,7.30
2018-06-27T16:09:59.297Z,7.23
2018-06-27T16:12:28.312Z,7.10
2018-06-27T16:14:57.258Z,6.13
2018-06-27T16:17:26.397Z,5.57
2018-06-27T16:19:55.782Z,7.07
2018-06-27T16:22:25.529Z,7.00
2018-06-27T16:24:55.231Z,13.30
2018-06-27T16:27:25.742Z,7.73
2018-06-27T16:29:56.417Z,7.93
2018-06-27T16:32:25.166Z,55.27
2018-06-27T16:34:55.315Z,19.50
2018-06-27T16:37:24.966Z,9.23
2018-06-27T16:39:54.400Z,10.00
2018-06-27T16:42:23.222Z,15.17
2018-06-27T16:44:53.341Z,11.27
2018-06-27T16:47:22.917Z,14.40
2018-06-27T16:49:51.827Z,13.40
2018-06-27T16:52:20.884Z,13.20
2018-06-27T16:54:50.488Z,13.57
2018-06-27T16:57:19.386Z,11.53
2018-06-27T16:59:48.140Z,13.20
2018-06-27T17:02:17.228Z,11.17
2018-06-27T17:04:46.819Z,13.07
2018-06-27T17:07:15.585Z,14.67
2018-06-27T17:09:45.507Z,12.77
2018-06-27T17:12:15.036Z,12.43
2018-06-27T17:14:43.761Z,11.00
2018-06-27T17:17:12.989Z,12.87
2018-06-27T17:19:41.904Z,37.67
2018-06-27T17:22:10.887Z,60.33
2018-06-27T17:24:40.351Z,70.80
2018-06-27T17:27:09.281Z,57.30
2018-06-27T17:29:38.129Z,59.20
2018-06-27T17:32:08.045Z,24.90
2018-06-27T17:34:36.870Z,17.50
2018-06-27T17:37:06.457Z,16.27
2018-06-27T17:39:36.005Z,59.40
2018-06-27T17:42:05.357Z,150.37
2018-06-27T17:44:34.381Z,160.23
2018-06-27T17:47:04.562Z,210.30
2018-06-27T17:49:34.699Z,256.43
2018-06-27T17:52:04.225Z,152.63
2018-06-27T17:54:38.819Z,73.73
2018-06-27T17:57:10.534Z,36.23
2018-06-27T17:59:39.931Z,150.70
2018-06-27T18:02:10.399Z,110.87
2018-06-27T18:04:39.783Z,96.80
2018-06-27T18:07:09.390Z,173.03
2018-06-27T18:09:38.886Z,91.50
2018-06-27T18:12:07.921Z,101.93
2018-06-27T18:14:37.826Z,73.50
2018-06-27T18:17:06.769Z,41.53
2018-06-27T18:19:35.641Z,63.60
2018-06-27T18:22:06.240Z,57.13
2018-06-27T18:24:34.978Z,55.50
2018-06-27T18:27:04.408Z,40.53
2018-06-27T18:29:33.301Z,20.23
2018-06-27T18:32:03.025Z,12.40
2018-06-27T18:34:32.913Z,8.50
2018-06-27T18:37:02.411Z,8.03
2018-06-27T18:39:31.954Z,9.00
2018-06-27T18:42:01.820Z,10.80
2018-06-27T18:44:30.853Z,10.93
2018-06-27T18:46:59.760Z,24.80
2018-06-27T18:49:28.613Z,12.60
2018-06-27T18:51:57.410Z,26.20
2018-06-27T18:54:26.917Z,27.17
2018-06-27T18:56:56.753Z,28.07
2018-06-27T18:59:25.830Z,50.07
2018-06-27T19:01:55.593Z,19.73
2018-06-27T19:04:25.776Z,58.77
2018-06-27T19:06:54.834Z,26.30
2018-06-27T19:09:23.911Z,39.83
2018-06-27T19:11:57.883Z,65.67
2018-06-27T19:14:27.506Z,186.77
2018-06-27T19:16:58.086Z,93.63
2018-06-27T19:19:27.687Z,193.47
2018-06-27T19:21:56.697Z,143.10
2018-06-27T19:24:25.583Z,55.40
2018-06-27T19:26:54.466Z,109.43
2018-06-27T19:29:25.704Z,38.43
2018-06-27T19:31:54.453Z,26.87
2018-06-27T19:34:23.607Z,74.43
2018-06-27T19:36:52.289Z,56.60
2018-06-27T19:39:21.142Z,91.63
2018-06-27T19:41:49.968Z,67.73
2018-06-27T19:44:18.959Z,22.53
2018-06-27T19:46:48.722Z,18.03
2018-06-27T19:49:18.366Z,18.20
2018-06-27T19:51:47.831Z,19.50
2018-06-27T19:54:17.192Z,18.87
2018-06-27T19:56:46.831Z,16.47
2018-06-27T19:59:16.047Z,17.57
2018-06-27T20:01:54.114Z,18.17
2018-06-27T20:04:22.960Z,17.40
2018-06-27T20:06:51.985Z,18.93
2018-06-27T20:09:23.108Z,20.67
2018-06-27T20:11:56.163Z,54.80
2018-06-27T20:14:25.548Z,25.53
2018-06-27T20:16:56.355Z,24.53
2018-06-27T20:19:25.167Z,23.17
2018-06-27T20:22:08.396Z,20.40
2018-06-27T20:24:38.250Z,17.67
2018-06-27T20:27:07.075Z,15.80
2018-06-27T20:29:36.185Z,21.23
2018-06-27T20:32:06.922Z,16.30
2018-06-27T20:34:36.336Z,11.10
2018-06-27T20:37:06.186Z,10.60
2018-06-27T20:39:35.173Z,12.13
2018-06-27T20:42:04.253Z,9.83
2018-06-27T20:44:37.521Z,12.10
2018-06-27T20:47:07.190Z,25.17
2018-06-27T20:49:43.947Z,11.47
2018-06-27T20:52:12.955Z,12.40
2018-06-27T20:54:43.680Z,10.63
2018-06-27T20:57:13.696Z,11.50
2018-06-27T20:59:45.667Z,11.03
2018-06-27T21:02:18.046Z,12.60
2018-06-27T21:04:48.483Z,11.10
2018-06-27T21:07:20.187Z,11.40
2018-06-27T21:09:49.496Z,10.50
2018-06-27T21:12:22.641Z,11.70
2018-06-27T21:14:54.558Z,11.60
2018-06-27T21:17:25.516Z,11.27
2018-06-27T21:19:54.976Z,10.87
2018-06-27T21:22:24.748Z,11.50
2018-06-27T21:24:53.626Z,10.07
2018-06-27T21:27:22.581Z,11.03
2018-06-27T21:29:52.686Z,10.23
2018-06-27T21:32:22.030Z,11.27
2018-06-27T21:34:56.617Z,11.67
2018-06-27T21:37:25.955Z,11.00
2018-06-27T21:39:55.704Z,10.30
2018-06-27T21:42:25.192Z,9.83
2018-06-27T21:44:56.596Z,9.70
2018-06-27T21:47:29.914Z,9.17
2018-06-27T21:50:06.440Z,8.50
2018-06-27T21:52:36.321Z,7.73
2018-06-27T21:55:06.041Z,7.33
2018-06-27T21:57:35.687Z,7.10
2018-06-27T22:00:06.365Z,8.30
2018-06-27T22:02:36.209Z,7.17
2018-06-27T22:05:05.257Z,8.27
2018-06-27T22:07:34.022Z,7.77
2018-06-27T22:10:03.713Z,6.83
2018-06-27T22:12:32.493Z,6.90
2018-06-27T22:15:01.795Z,6.50
2018-06-27T22:17:31.632Z,7.67
2018-06-27T22:20:00.599Z,9.40
2018-06-27T22:22:29.754Z,6.60
2018-06-27T22:25:00.394Z,7.57
2018-06-27T22:27:30.654Z,7.93
2018-06-27T22:29:59.853Z,6.30
2018-06-27T22:32:30.226Z,6.30
2018-06-27T22:35:00.068Z,7.13
2018-06-27T22:37:29.706Z,7.87
2018-06-27T22:39:59.743Z,7.20
2018-06-27T22:42:29.349Z,7.20
2018-06-27T22:44:58.350Z,7.03
2018-06-27T22:47:28.650Z,6.80
2018-06-27T22:49:57.712Z,6.20
2018-06-27T22:52:26.511Z,5.73
2018-06-27T22:54:54.973Z,5.60
2018-06-27T22:57:23.904Z,6.90
2018-06-27T22:59:52.847Z,7.30
2018-06-27T23:02:22.129Z,5.57
2018-06-27T23:04:51.181Z,5.60
2018-06-27T23:07:20.622Z,7.63
2018-06-27T23:09:49.820Z,5.73
2018-06-27T23:12:19.506Z,6.30
2018-06-27T23:14:48.888Z,6.40
2018-06-27T23:17:18.308Z,6.10
2018-06-27T23:19:47.946Z,7.13
2018-06-27T23:22:28.679Z,6.27
2018-06-27T23:24:57.981Z,6.23
2018-06-27T23:27:27.074Z,6.33
2018-06-27T23:29:56.138Z,6.07
2018-06-27T23:32:25.508Z,6.30
2018-06-27T23:34:54.575Z,7.20
2018-06-27T23:37:24.019Z,6.80
2018-06-27T23:39:52.945Z,6.40
2018-06-27T23:42:21.924Z,6.93
2018-06-27T23:44:50.929Z,6.37
2018-06-27T23:47:19.759Z,7.03
2018-06-27T23:49:50.003Z,6.60
2018-06-27T23:52:19.588Z,6.60
2018-06-27T23:54:49.581Z,6.97
2018-06-27T23:57:19.332Z,8.03
2018-06-27T23:59:48.467Z,6.97
